Time;durP1;ratioP1;P1;durP2;ratioP2;P2;SDS_P1;SDS_P2;PMS_P1;PMS_P2;Temp;Humidity;BMP_temperature;BMP_pressure;BME280_temperature;BME280_humidity;BME280_pressure;Samples;Min_cycle;Max_cycle;Signal;HPM_P1;HPM_P2
2021/01/13 00:01:04;;;;;;;32.30;17.77;;;17.40;59.00;;;;;;4991808;28;20126;-72
2021/01/13 00:03:31;;;;;;;30.55;17.20;;;17.40;58.70;;;;;;4998589;28;20478;-72
2021/01/13 00:05:57;;;;;;;26.52;16.83;;;17.30;59.00;;;;;;4995455;28;20026;-71
2021/01/13 00:08:24;;;;;;;31.15;16.38;;;17.30;59.00;;;;;;4991920;28;20069;-71
2021/01/13 00:10:50;;;;;;;31.13;19.00;;;17.30;58.50;;;;;;4993998;28;20041;-70
2021/01/13 00:13:17;;;;;;;30.33;17.35;;;17.40;58.90;;;;;;4989477;28;20419;-71
2021/01/13 00:15:43;;;;;;;32.03;15.93;;;17.50;59.10;;;;;;4994113;28;20081;-70
2021/01/13 00:18:11;;;;;;;29.55;15.82;;;17.50;59.00;;;;;;4995138;28;20022;-71
2021/01/13 00:20:37;;;;;;;25.85;15.35;;;17.50;59.10;;;;;;4991423;28;20106;-70
2021/01/13 00:23:04;;;;;;;31.42;15.77;;;17.50;58.50;;;;;;4990905;28;20063;-71
2021/01/13 00:25:30;;;;;;;29.48;17.83;;;17.60;59.00;;;;;;4987733;28;20022;-70
2021/01/13 00:27:57;;;;;;;26.52;15.55;;;17.60;58.70;;;;;;4991182;28;20026;-70
2021/01/13 00:30:23;;;;;;;27.42;15.25;;;17.60;58.60;;;;;;4989738;28;20042;-70
2021/01/13 00:32:49;;;;;;;27.90;14.60;;;17.70;59.30;;;;;;4987592;28;20022;-69
2021/01/13 00:35:17;;;;;;;26.20;14.82;;;17.70;59.30;;;;;;4994669;28;20069;-70
2021/01/13 00:37:44;;;;;;;19.98;13.55;;;17.70;59.40;;;;;;4991576;28;20113;-75
2021/01/13 00:40:11;;;;;;;19.83;12.93;;;17.70;59.40;;;;;;4987693;28;20419;-70
2021/01/13 00:42:46;;;;;;;24.40;14.23;;;17.70;59.40;;;;;;4989954;28;20127;-70
2021/01/13 00:45:14;;;;;;;24.25;14.50;;;17.70;59.50;;;;;;4990812;28;20360;-70
2021/01/13 00:47:41;;;;;;;23.25;13.70;;;17.70;59.70;;;;;;4992004;28;20466;-70
2021/01/13 00:50:09;;;;;;;28.63;15.93;;;17.80;59.60;;;;;;4993534;28;20026;-70
2021/01/13 00:52:36;;;;;;;29.95;13.55;;;17.70;59.50;;;;;;4987153;28;20035;-70
2021/01/13 00:55:03;;;;;;;23.95;13.02;;;17.70;59.80;;;;;;4991609;28;20018;-71
2021/01/13 00:57:29;;;;;;;25.77;15.43;;;17.70;59.90;;;;;;4991431;28;20026;-70
2021/01/13 00:59:56;;;;;;;22.38;13.75;;;17.70;59.80;;;;;;4993876;28;20034;-70
2021/01/13 01:02:22;;;;;;;30.33;14.13;;;17.70;59.80;;;;;;4992865;28;20026;-70
2021/01/13 01:04:49;;;;;;;21.40;13.35;;;17.60;59.80;;;;;;4990346;28;20073;-70
2021/01/13 01:07:15;;;;;;;23.40;12.27;;;17.70;59.80;;;;;;4992515;28;20077;-70
2021/01/13 01:09:41;;;;;;;24.90;13.38;;;17.60;59.80;;;;;;4991977;28;20368;-72
2021/01/13 01:12:08;;;;;;;25.35;15.63;;;17.60;60.00;;;;;;4989663;28;20134;-70
2021/01/13 01:14:36;;;;;;;22.17;12.88;;;17.60;60.00;;;;;;4988282;28;20349;-70
2021/01/13 01:17:09;;;;;;;22.92;15.10;;;17.60;60.00;;;;;;4981095;28;20022;-71
2021/01/13 01:19:37;;;;;;;28.85;14.18;;;17.50;60.10;;;;;;4988887;28;20037;-70
2021/01/13 01:22:04;;;;;;;31.48;15.80;;;17.50;59.60;;;;;;4984307;28;20030;-70
2021/01/13 01:24:30;;;;;;;29.45;15.20;;;17.40;59.40;;;;;;4989225;28;20356;-70
2021/01/13 01:26:57;;;;;;;26.02;12.90;;;17.30;59.50;;;;;;4985044;28;20165;-69
2021/01/13 01:29:23;;;;;;;23.55;12.38;;;17.30;59.80;;;;;;4985454;28;20148;-70
2021/01/13 01:31:51;;;;;;;24.08;12.25;;;17.30;59.90;;;;;;4989452;28;20026;-69
2021/01/13 01:34:17;;;;;;;23.70;11.80;;;17.30;60.00;;;;;;4991833;28;20027;-69
2021/01/13 01:36:45;;;;;;;23.08;10.98;;;17.30;60.30;;;;;;4987995;28;20049;-69
2021/01/13 01:39:11;;;;;;;19.45;13.90;;;17.30;60.40;;;;;;4996154;28;20168;-70
2021/01/13 01:41:38;;;;;;;26.02;12.52;;;17.30;60.10;;;;;;4992690;28;20868;-70
2021/01/13 01:44:04;;;;;;;30.20;14.57;;;17.30;60.10;;;;;;4990268;28;20038;-73
2021/01/13 01:46:31;;;;;;;29.50;15.38;;;17.30;60.00;;;;;;4995656;28;20475;-70
2021/01/13 01:49:00;;;;;;;27.10;13.75;;;17.30;60.00;;;;;;4991631;28;20503;-69
2021/01/13 01:51:38;;;;;;;27.45;15.05;;;17.20;59.80;;;;;;4991437;28;20109;-69
2021/01/13 01:54:15;;;;;;;28.90;12.85;;;17.10;59.70;;;;;;4997461;28;20065;-70
2021/01/13 01:56:43;;;;;;;27.15;14.27;;;17.10;59.70;;;;;;4995494;28;20654;-70
2021/01/13 01:59:15;;;;;;;28.73;14.30;;;17.10;59.70;;;;;;4994903;28;20497;-69
2021/01/13 02:01:46;;;;;;;23.33;11.88;;;17.10;59.50;;;;;;4990213;28;20117;-71
2021/01/13 02:04:14;;;;;;;29.13;13.60;;;17.10;59.60;;;;;;4996046;28;20022;-69
2021/01/13 02:07:03;;;;;;;26.92;13.23;;;17.00;59.50;;;;;;4995725;28;20058;-69
2021/01/13 02:09:30;;;;;;;28.15;13.70;;;17.00;59.80;;;;;;4996156;28;20027;-69
2021/01/13 02:12:04;;;;;;;29.50;13.57;;;17.10;60.00;;;;;;4995606;28;20068;-69
2021/01/13 02:14:30;;;;;;;19.67;10.00;;;17.00;60.20;;;;;;4982700;28;20026;-69
2021/01/13 02:16:58;;;;;;;21.52;11.38;;;17.00;60.20;;;;;;4991976;28;20487;-69
2021/01/13 02:19:46;;;;;;;27.17;12.00;;;17.00;60.40;;;;;;4993855;28;20030;-69
2021/01/13 02:22:15;;;;;;;34.35;12.75;;;16.90;60.70;;;;;;4991983;28;20058;-69
2021/01/13 02:25:12;;;;;;;19.77;10.77;;;17.00;60.70;;;;;;4994353;28;20449;-69
2021/01/13 02:27:57;;;;;;;23.17;10.73;;;16.90;60.80;;;;;;4995211;28;20052;-69
2021/01/13 02:30:29;;;;;;;22.63;10.60;;;16.80;60.90;;;;;;4995569;28;20113;-69
2021/01/13 02:33:00;;;;;;;17.40;8.52;;;16.80;61.00;;;;;;4994628;28;20022;-70
2021/01/13 02:35:28;;;;;;;22.05;10.60;;;16.80;60.90;;;;;;4989310;28;20041;-69
2021/01/13 02:38:13;;;;;;;24.80;10.15;;;16.80;61.00;;;;;;4995657;28;20022;-68
2021/01/13 02:40:48;;;;;;;21.65;11.80;;;16.80;61.20;;;;;;4995411;28;20483;-69
2021/01/13 02:43:18;;;;;;;26.30;12.38;;;16.80;61.30;;;;;;4995093;28;20113;-69
2021/01/13 02:45:47;;;;;;;22.08;12.00;;;16.80;61.00;;;;;;4994536;28;20030;-69
2021/01/13 02:48:21;;;;;;;23.15;12.15;;;16.80;60.70;;;;;;4994491;28;20527;-70
2021/01/13 02:50:51;;;;;;;28.90;10.27;;;16.80;60.40;;;;;;4995058;28;20059;-72
2021/01/13 02:53:17;;;;;;;16.25;10.45;;;16.70;60.60;;;;;;4980548;28;20022;-72
2021/01/13 02:55:46;;;;;;;19.10;10.23;;;16.50;60.80;;;;;;4991893;28;20097;-72
2021/01/13 02:58:18;;;;;;;26.63;12.68;;;16.40;61.40;;;;;;4990360;28;20030;-70
2021/01/13 03:00:45;;;;;;;25.05;9.10;;;16.40;61.30;;;;;;4990113;28;20025;-70
2021/01/13 03:03:14;;;;;;;19.25;10.13;;;16.30;61.50;;;;;;4994685;28;20105;-70
2021/01/13 03:05:40;;;;;;;26.83;11.95;;;16.30;61.70;;;;;;4991867;28;20068;-70
2021/01/13 03:08:07;;;;;;;18.55;9.38;;;16.30;61.80;;;;;;4994896;28;20022;-70
2021/01/13 03:10:38;;;;;;;16.83;8.30;;;16.20;61.80;;;;;;4992043;28;20153;-70
2021/01/13 03:13:07;;;;;;;19.02;10.40;;;16.10;62.00;;;;;;4992071;28;20053;-71
2021/01/13 03:15:36;;;;;;;20.80;12.27;;;16.10;62.10;;;;;;4993321;28;20027;-71
2021/01/13 03:18:19;;;;;;;25.55;11.23;;;16.10;61.90;;;;;;4990376;28;20040;-71
2021/01/13 03:21:09;;;;;;;20.15;10.05;;;16.10;61.50;;;;;;4995149;28;20029;-71
2021/01/13 03:23:45;;;;;;;15.95;8.15;;;16.00;62.60;;;;;;4992351;28;20058;-71
2021/01/13 03:26:20;;;;;;;20.50;9.18;;;15.90;62.40;;;;;;4989195;28;20019;-70
2021/01/13 03:28:50;;;;;;;20.10;8.30;;;15.80;62.40;;;;;;4996035;28;20026;-71
2021/01/13 03:31:29;;;;;;;20.20;9.18;;;15.80;62.40;;;;;;4993485;28;20092;-71
2021/01/13 03:34:10;;;;;;;29.10;11.13;;;15.80;62.70;;;;;;4989834;28;20057;-72
2021/01/13 03:36:49;;;;;;;21.35;11.95;;;15.80;62.40;;;;;;4984814;28;20035;-71
2021/01/13 03:39:20;;;;;;;25.65;10.85;;;15.90;61.70;;;;;;4993253;28;20032;-71
2021/01/13 03:42:04;;;;;;;20.42;9.90;;;15.80;62.30;;;;;;4994701;28;20030;-71
2021/01/13 03:44:33;;;;;;;27.50;10.55;;;15.70;62.60;;;;;;4993020;28;21326;-69
2021/01/13 03:47:38;;;;;;;24.42;11.90;;;15.70;62.10;;;;;;4994762;28;20069;-70
2021/01/13 03:50:12;;;;;;;30.65;12.85;;;15.80;62.10;;;;;;4988240;28;20058;-71
2021/01/13 03:52:45;;;;;;;26.17;14.07;;;15.80;62.10;;;;;;4990276;28;20039;-73
2021/01/13 03:55:12;;;;;;;22.83;12.20;;;15.70;61.90;;;;;;4990922;28;20027;-71
2021/01/13 03:58:02;;;;;;;29.38;12.40;;;15.70;61.80;;;;;;4993048;28;20540;-72
2021/01/13 04:00:30;;;;;;;22.50;12.20;;;15.70;62.00;;;;;;4992501;28;20089;-72
2021/01/13 04:03:26;;;;;;;29.13;11.15;;;15.70;62.20;;;;;;4981800;28;20030;-72
2021/01/13 04:06:06;;;;;;;24.58;10.18;;;15.60;61.70;;;;;;4986897;28;20026;-72
2021/01/13 04:08:45;;;;;;;26.45;11.20;;;15.40;63.00;;;;;;4992577;28;20035;-73
2021/01/13 04:11:13;;;;;;;16.63;9.82;;;15.20;64.30;;;;;;4990560;28;20033;-70
2021/01/13 04:13:44;;;;;;;30.60;13.85;;;15.20;63.90;;;;;;4991021;28;20034;-71
2021/01/13 04:16:13;;;;;;;31.95;14.13;;;15.20;63.80;;;;;;4993393;28;20029;-70
2021/01/13 04:18:42;;;;;;;28.65;12.73;;;15.20;63.80;;;;;;4994385;28;20045;-70
2021/01/13 04:21:11;;;;;;;26.05;12.75;;;15.30;63.10;;;;;;4992183;28;20053;-72
2021/01/13 04:23:38;;;;;;;29.00;13.63;;;15.40;62.70;;;;;;4992854;28;20033;-70
2021/01/13 04:26:05;;;;;;;24.38;12.98;;;15.50;62.30;;;;;;4994957;28;20109;-71
2021/01/13 04:28:31;;;;;;;21.58;12.25;;;15.30;63.20;;;;;;4991112;28;20456;-68
2021/01/13 04:30:58;;;;;;;26.38;11.05;;;15.10;63.50;;;;;;4987674;28;21479;-70
2021/01/13 04:33:25;;;;;;;29.35;12.55;;;15.00;64.10;;;;;;4992709;28;20018;-70
2021/01/13 04:35:53;;;;;;;35.72;13.65;;;15.00;64.20;;;;;;4985654;28;20038;-70
2021/01/13 04:38:31;;;;;;;33.72;13.68;;;15.00;63.60;;;;;;4982905;28;20031;-69
2021/01/13 04:41:17;;;;;;;29.27;13.38;;;15.10;63.30;;;;;;4982744;28;20460;-71
2021/01/13 04:43:54;;;;;;;31.33;14.75;;;15.10;63.00;;;;;;4991184;28;20053;-70
2021/01/13 04:46:35;;;;;;;40.17;24.63;;;15.00;62.60;;;;;;4998350;28;20076;-70
2021/01/13 04:49:04;;;;;;;93.85;63.60;;;14.90;63.50;;;;;;4983406;28;20586;-71
2021/01/13 04:51:38;;;;;;;40.40;19.05;;;14.80;63.60;;;;;;4987550;28;20053;-72
2021/01/13 04:54:07;;;;;;;25.40;16.35;;;14.80;63.60;;;;;;4988102;28;20472;-71
2021/01/13 04:56:59;;;;;;;37.33;15.23;;;14.80;63.40;;;;;;4992693;28;20464;-72
2021/01/13 04:59:50;;;;;;;33.17;16.73;;;14.80;64.30;;;;;;4985134;28;20078;-73
2021/01/13 05:02:18;;;;;;;31.45;14.35;;;14.70;63.80;;;;;;4989995;28;20034;-70
2021/01/13 05:05:00;;;;;;;33.40;14.30;;;14.70;64.00;;;;;;4993233;28;20487;-71
2021/01/13 05:07:39;;;;;;;;;;;14.70;64.20;;;;;;4999446;28;20032;-71
2021/01/13 05:10:09;;;;;;;28.55;13.60;;;14.60;64.00;;;;;;4988223;28;19957;-71
2021/01/13 05:12:58;;;;;;;20.85;11.98;;;14.50;65.00;;;;;;4994469;28;20054;-70
2021/01/13 05:15:29;;;;;;;20.45;9.55;;;14.50;64.20;;;;;;4994073;28;20084;-70
2021/01/13 05:18:09;;;;;;;17.08;11.05;;;14.40;65.20;;;;;;4997936;28;20105;-72
2021/01/13 05:20:38;;;;;;;17.25;9.77;;;14.30;65.60;;;;;;4990546;28;20037;-71
2021/01/13 05:23:07;;;;;;;27.15;12.82;;;14.20;65.50;;;;;;4994562;28;20084;-70
2021/01/13 05:25:52;;;;;;;29.48;12.70;;;14.30;65.40;;;;;;4994064;28;20200;-72
2021/01/13 05:28:27;;;;;;;25.50;11.45;;;14.30;64.50;;;;;;4993423;28;20459;-69
2021/01/13 05:30:58;;;;;;;21.40;10.80;;;14.20;65.40;;;;;;4991672;28;20041;-73
2021/01/13 05:33:32;;;;;;;19.88;9.65;;;14.10;65.70;;;;;;4992539;28;20113;-69
2021/01/13 05:36:01;;;;;;;26.02;11.88;;;14.00;65.70;;;;;;4999361;28;20117;-68
2021/01/13 05:38:43;;;;;;;29.42;13.25;;;14.00;65.20;;;;;;4994907;28;20015;-71
2021/01/13 05:41:11;;;;;;;23.15;10.90;;;14.10;65.00;;;;;;4994338;28;20391;-70
2021/01/13 05:43:46;;;;;;;30.65;10.95;;;14.10;65.80;;;;;;4997199;28;20368;-70
2021/01/13 05:46:15;;;;;;;28.60;11.48;;;13.90;67.30;;;;;;5004852;28;20038;-70
2021/01/13 05:48:43;;;;;;;21.63;12.43;;;13.90;65.70;;;;;;4999763;28;20030;-70
2021/01/13 05:51:10;;;;;;;25.70;12.55;;;13.90;66.60;;;;;;4995541;28;20487;-70
2021/01/13 05:53:38;;;;;;;24.58;9.88;;;14.00;65.60;;;;;;5002688;28;20053;-71
2021/01/13 05:56:05;;;;;;;29.20;10.65;;;13.90;66.70;;;;;;4995846;28;20027;-71
2021/01/13 05:58:32;;;;;;;17.50;10.55;;;13.80;66.90;;;;;;4998026;28;20022;-71
2021/01/13 06:00:59;;;;;;;22.33;11.20;;;13.90;67.00;;;;;;5002371;28;20441;-71
2021/01/13 06:03:29;;;;;;;31.45;12.93;;;13.90;66.30;;;;;;5000407;28;20085;-71
2021/01/13 06:05:59;;;;;;;23.27;11.02;;;13.80;65.90;;;;;;5016207;28;20351;-69
2021/01/13 06:08:31;;;;;;;27.70;11.75;;;13.80;65.50;;;;;;5008310;28;20014;-72
2021/01/13 06:11:00;;;;;;;23.27;9.33;;;13.90;65.50;;;;;;4981600;28;20384;-70
2021/01/13 06:13:32;;;;;;;27.40;12.32;;;14.00;66.10;;;;;;5005852;28;20026;-70
2021/01/13 06:16:03;;;;;;;25.80;10.25;;;14.10;66.30;;;;;;4986926;28;20026;-70
2021/01/13 06:18:35;;;;;;;20.33;8.93;;;14.00;67.20;;;;;;4997880;28;20499;-70
2021/01/13 06:21:13;;;;;;;25.65;11.60;;;13.90;67.60;;;;;;4981957;28;20265;-68
2021/01/13 06:23:50;;;;;;;22.23;10.25;;;13.80;67.50;;;;;;4986618;28;20019;-69
2021/01/13 06:26:20;;;;;;;18.85;8.25;;;13.80;67.30;;;;;;4996588;28;20156;-69
2021/01/13 06:29:17;;;;;;;24.88;8.82;;;13.70;67.90;;;;;;4995886;28;20033;-69
2021/01/13 06:31:47;;;;;;;25.77;8.60;;;13.60;67.80;;;;;;4997434;28;20026;-70
2021/01/13 06:34:33;;;;;;;21.40;10.30;;;13.70;67.90;;;;;;4997792;28;20110;-71
2021/01/13 06:37:48;;;;;;;23.92;11.02;;;13.70;66.90;;;;;;4992111;28;20022;-70
2021/01/13 06:40:17;;;;;;;26.38;10.27;;;13.80;66.60;;;;;;4988201;28;20491;-70
2021/01/13 06:42:44;;;;;;;23.00;11.02;;;13.80;67.00;;;;;;4995040;28;20049;-70
2021/01/13 06:45:12;;;;;;;22.48;9.98;;;13.70;68.00;;;;;;4993866;28;20034;-70
2021/01/13 06:47:57;;;;;;;20.85;9.02;;;13.60;67.30;;;;;;4995282;28;20079;-70
2021/01/13 06:50:37;;;;;;;25.90;11.00;;;13.80;67.50;;;;;;4993925;28;20141;-70
2021/01/13 06:53:11;;;;;;;19.42;9.88;;;13.90;67.70;;;;;;4996341;28;20036;-71
2021/01/13 06:55:40;;;;;;;26.10;10.55;;;13.90;67.40;;;;;;4992906;28;20027;-70
2021/01/13 06:58:17;;;;;;;17.00;9.10;;;13.80;67.40;;;;;;4994950;28;20022;-72
2021/01/13 07:00:45;;;;;;;23.02;9.70;;;13.70;67.70;;;;;;4995954;28;20037;-70
2021/01/13 07:03:31;;;;;;;26.30;10.13;;;13.80;67.80;;;;;;4996562;28;20038;-70
2021/01/13 07:06:17;;;;;;;23.48;10.00;;;13.80;67.80;;;;;;4989391;28;20030;-70
2021/01/13 07:08:44;;;;;;;13.73;8.05;;;13.60;68.80;;;;;;4997896;28;20071;-73
2021/01/13 07:11:11;;;;;;;23.67;9.30;;;13.50;69.50;;;;;;4997251;28;20025;-70
2021/01/13 07:13:48;;;;;;;16.15;9.70;;;13.50;69.20;;;;;;4995682;28;20053;-70
2021/01/13 07:16:15;;;;;;;19.85;8.93;;;13.60;68.60;;;;;;4989477;28;20114;-70
2021/01/13 07:18:42;;;;;;;19.08;9.45;;;13.50;68.20;;;;;;4990675;28;20126;-70
2021/01/13 07:21:11;;;;;;;27.13;9.30;;;13.60;68.30;;;;;;4991316;28;20026;-70
2021/01/13 07:23:42;;;;;;;19.15;9.45;;;13.60;68.80;;;;;;4995914;28;20471;-69
2021/01/13 07:26:08;;;;;;;25.52;9.48;;;13.60;68.80;;;;;;4994931;28;20121;-70
2021/01/13 07:28:38;;;;;;;21.15;8.52;;;13.60;68.70;;;;;;4994697;28;20038;-70
2021/01/13 07:31:06;;;;;;;29.73;8.77;;;13.70;68.50;;;;;;4994887;28;20475;-69
2021/01/13 07:33:35;;;;;;;22.85;9.05;;;13.70;68.40;;;;;;4983591;28;20504;-70
2021/01/13 07:36:04;;;;;;;15.63;8.45;;;13.80;69.00;;;;;;4995609;28;20441;-70
2021/01/13 07:38:34;;;;;;;32.83;10.88;;;13.80;69.10;;;;;;4994688;28;20026;-70
2021/01/13 07:41:07;;;;;;;27.75;9.65;;;13.90;69.20;;;;;;4989486;28;20069;-70
2021/01/13 07:44:06;;;;;;;18.75;7.68;;;14.00;69.40;;;;;;4985156;28;20468;-70
2021/01/13 07:46:34;;;;;;;17.65;8.25;;;14.00;69.00;;;;;;4979426;28;20388;-70
2021/01/13 07:49:22;;;;;;;22.85;7.28;;;13.90;69.00;;;;;;4983820;28;20031;-70
2021/01/13 07:51:57;;;;;;;16.02;7.20;;;13.80;69.00;;;;;;4989514;28;20034;-70
2021/01/13 07:54:32;;;;;;;19.55;8.10;;;13.70;69.70;;;;;;4990364;28;20026;-71
2021/01/13 07:57:04;;;;;;;19.23;8.98;;;13.70;69.50;;;;;;4994157;28;20023;-70
2021/01/13 07:59:46;;;;;;;17.98;6.85;;;13.80;69.30;;;;;;4994147;28;20029;-70
2021/01/13 08:02:37;;;;;;;24.30;8.52;;;13.60;69.80;;;;;;4991520;28;20100;-70
2021/01/13 08:05:37;;;;;;;17.92;7.47;;;13.60;69.70;;;;;;4990245;28;20148;-72
2021/01/13 08:08:08;;;;;;;25.13;8.13;;;13.60;69.60;;;;;;4984696;28;20033;-72
2021/01/13 08:10:37;;;;;;;25.73;7.50;;;13.70;69.10;;;;;;4991943;28;20105;-71
2021/01/13 08:13:46;;;;;;;18.52;8.85;;;13.70;69.30;;;;;;4992222;28;20027;-75
2021/01/13 08:16:35;;;;;;;19.92;7.75;;;13.70;68.90;;;;;;4990490;28;20022;-70
2021/01/13 08:19:40;;;;;;;18.45;8.65;;;13.80;70.40;;;;;;4989297;28;20027;-67
2021/01/13 08:22:15;;;;;;;18.27;8.90;;;13.80;69.40;;;;;;4988696;28;20026;-70
2021/01/13 08:24:45;;;;;;;16.42;7.30;;;13.80;68.90;;;;;;4990819;28;20037;-70
2021/01/13 08:27:12;;;;;;;15.93;8.32;;;13.70;69.10;;;;;;4994589;28;20061;-69
2021/01/13 08:29:41;;;;;;;20.52;8.52;;;13.60;69.30;;;;;;4990367;28;20033;-69
2021/01/13 08:32:12;;;;;;;19.60;7.40;;;13.60;69.00;;;;;;4988897;28;20015;-69
2021/01/13 08:34:46;;;;;;;24.35;8.15;;;13.50;69.80;;;;;;4984838;28;20025;-70
2021/01/13 08:37:13;;;;;;;19.77;8.55;;;13.60;70.40;;;;;;4988907;28;20033;-70
2021/01/13 08:39:43;;;;;;;29.23;9.77;;;13.60;69.80;;;;;;4987902;28;20085;-70
2021/01/13 08:42:32;;;;;;;16.42;7.28;;;13.50;70.60;;;;;;4991469;28;20037;-70
2021/01/13 08:44:59;;;;;;;15.93;7.10;;;13.40;70.30;;;;;;4990459;28;20694;-69
2021/01/13 08:47:26;;;;;;;18.27;7.03;;;13.30;70.20;;;;;;4990570;28;20052;-69
2021/01/13 08:50:12;;;;;;;19.70;7.07;;;13.20;70.70;;;;;;4984616;28;20043;-70
2021/01/13 08:52:49;;;;;;;17.02;6.55;;;13.20;70.70;;;;;;4992903;28;20054;-70
2021/01/13 08:55:16;;;;;;;14.45;6.43;;;13.10;71.10;;;;;;4986946;28;20464;-69
2021/01/13 08:58:04;;;;;;;13.65;6.05;;;13.00;71.70;;;;;;4995667;28;20042;-70
2021/01/13 09:00:32;;;;;;;13.88;6.57;;;12.90;71.40;;;;;;4998523;28;20022;-69
2021/01/13 09:03:10;;;;;;;14.43;5.72;;;13.00;71.30;;;;;;4993698;28;20089;-70
2021/01/13 09:05:39;;;;;;;12.93;5.15;;;12.90;71.50;;;;;;4998197;28;20033;-69
2021/01/13 09:08:09;;;;;;;11.35;5.57;;;12.90;71.50;;;;;;4997580;28;20026;-69
2021/01/13 09:10:52;;;;;;;10.65;5.32;;;12.80;71.40;;;;;;4993579;28;20076;-70
2021/01/13 09:13:32;;;;;;;21.08;7.85;;;12.80;71.60;;;;;;4996860;28;20018;-70
2021/01/13 09:16:17;;;;;;;13.77;6.03;;;12.90;70.90;;;;;;4984249;28;20029;-70
2021/01/13 09:18:46;;;;;;;19.27;8.05;;;12.90;71.00;;;;;;4997122;28;20471;-70
2021/01/13 09:21:15;;;;;;;19.08;7.60;;;12.80;71.00;;;;;;4999197;28;20022;-69
2021/01/13 09:23:55;;;;;;;15.75;6.90;;;12.80;71.00;;;;;;4998463;28;20022;-69
2021/01/13 09:26:32;;;;;;;24.08;7.63;;;12.70;71.00;;;;;;4990205;28;20023;-70
2021/01/13 09:29:04;;;;;;;23.63;7.97;;;12.70;70.40;;;;;;4997196;28;20379;-68
2021/01/13 09:31:32;;;;;;;25.83;7.07;;;12.80;70.30;;;;;;4992753;28;20074;-70
2021/01/13 09:33:58;;;;;;;20.45;7.80;;;12.90;70.10;;;;;;4991866;28;20022;-69
2021/01/13 09:36:26;;;;;;;20.42;7.65;;;12.90;70.50;;;;;;4998214;28;20054;-70
2021/01/13 09:39:17;;;;;;;15.27;6.57;;;12.80;70.40;;;;;;4998335;28;20029;-69
2021/01/13 09:41:56;;;;;;;20.23;6.83;;;12.70;71.90;;;;;;4993869;28;20105;-69
2021/01/13 09:44:30;;;;;;;23.48;8.77;;;12.60;71.50;;;;;;4996271;28;20456;-70
2021/01/13 09:46:57;;;;;;;18.98;7.15;;;12.70;71.40;;;;;;4998212;28;20368;-70
2021/01/13 09:49:23;;;;;;;15.05;7.57;;;12.80;71.00;;;;;;4986328;28;20092;-71
2021/01/13 09:51:50;;;;;;;22.55;9.73;;;12.90;70.70;;;;;;4997885;28;20037;-69
2021/01/13 09:54:22;;;;;;;23.95;7.88;;;12.90;70.80;;;;;;4997642;28;20081;-70
2021/01/13 09:56:53;;;;;;;;;;;13.00;71.00;;;;;;4997995;28;20034;-69
2021/01/13 09:59:25;;;;;;;21.35;8.98;;;13.10;71.50;;;;;;4997835;28;19916;-70
2021/01/13 10:01:57;;;;;;;28.23;9.10;;;13.10;70.60;;;;;;4998347;28;20058;-71
2021/01/13 10:04:23;;;;;;;;;;;13.10;70.70;;;;;;4998168;28;20314;-72
2021/01/13 10:06:56;;;;;;;14.77;6.65;;;13.10;71.20;;;;;;4996359;28;19968;-70
2021/01/13 10:09:24;;;;;;;12.90;5.68;;;12.90;71.70;;;;;;4997595;28;20391;-71
2021/01/13 10:11:54;;;;;;;17.27;6.50;;;12.70;72.20;;;;;;4997516;28;20026;-69
2021/01/13 10:14:21;;;;;;;12.18;6.60;;;12.60;73.00;;;;;;4996243;28;20034;-71
2021/01/13 10:16:49;;;;;;;16.73;6.65;;;12.50;73.00;;;;;;4997684;28;20018;-71
2021/01/13 10:19:17;;;;;;;14.63;6.22;;;12.50;72.40;;;;;;4997033;28;20030;-69
2021/01/13 10:21:48;;;;;;;18.15;8.45;;;12.50;72.40;;;;;;4997940;28;20022;-70
2021/01/13 10:24:17;;;;;;;24.90;7.55;;;12.50;72.30;;;;;;4999243;28;20033;-71
2021/01/13 10:26:44;;;;;;;20.25;7.38;;;12.50;71.70;;;;;;4996724;28;20034;-70
2021/01/13 10:29:13;;;;;;;12.90;6.50;;;12.50;71.40;;;;;;4995211;28;20050;-72
2021/01/13 10:31:40;;;;;;;18.05;7.10;;;12.40;71.80;;;;;;4996268;28;20369;-70
2021/01/13 10:34:10;;;;;;;16.58;7.70;;;12.40;71.40;;;;;;4997155;28;20018;-69
2021/01/13 10:36:40;;;;;;;16.70;7.05;;;12.40;71.50;;;;;;4997164;28;20023;-70
2021/01/13 10:39:12;;;;;;;15.95;7.28;;;12.30;72.40;;;;;;5002662;28;20109;-70
2021/01/13 10:41:44;;;;;;;27.15;8.73;;;12.20;72.30;;;;;;5009260;28;20183;-70
2021/01/13 10:44:13;;;;;;;19.50;7.57;;;12.40;72.20;;;;;;4996385;28;20383;-70
2021/01/13 10:46:52;;;;;;;15.57;7.63;;;12.40;71.70;;;;;;4998472;28;20046;-73
2021/01/13 10:49:28;;;;;;;17.88;5.93;;;12.50;72.20;;;;;;5000226;28;20026;-72
2021/01/13 10:52:06;;;;;;;20.90;6.90;;;12.40;72.30;;;;;;4991416;28;20069;-70
2021/01/13 10:54:35;;;;;;;16.70;7.60;;;12.30;72.10;;;;;;4987937;28;20045;-70
2021/01/13 10:57:06;;;;;;;20.33;7.60;;;12.30;73.20;;;;;;4996900;28;20360;-69
2021/01/13 10:59:34;;;;;;;21.23;7.28;;;12.20;72.20;;;;;;4995754;28;20420;-70
2021/01/13 11:02:06;;;;;;;16.33;6.60;;;12.20;72.60;;;;;;4995488;28;20065;-70
2021/01/13 11:04:35;;;;;;;14.45;6.30;;;12.10;72.50;;;;;;4996676;28;20060;-70
2021/01/13 11:07:04;;;;;;;13.07;7.15;;;12.10;72.90;;;;;;4993978;28;20030;-71
2021/01/13 11:09:32;;;;;;;19.38;7.15;;;12.10;72.80;;;;;;4995899;28;20031;-70
2021/01/13 11:11:59;;;;;;;18.02;7.18;;;12.10;72.90;;;;;;4996435;28;20432;-70
2021/01/13 11:14:31;;;;;;;26.55;7.20;;;12.20;72.40;;;;;;4994634;28;20041;-70
2021/01/13 11:17:06;;;;;;;;;;;12.30;72.20;;;;;;4996147;28;20033;-70
2021/01/13 11:19:34;;;;;;;23.85;7.90;;;12.50;72.40;;;;;;4996388;28;19910;-70
2021/01/13 11:22:00;;;;;;;17.45;7.65;;;12.50;72.20;;;;;;4996440;28;20026;-71
2021/01/13 11:24:32;;;;;;;25.55;9.75;;;12.60;72.70;;;;;;4995841;28;20445;-71
2021/01/13 11:27:01;;;;;;;16.60;7.00;;;12.50;72.50;;;;;;4995680;28;20181;-72
2021/01/13 11:29:30;;;;;;;16.63;7.30;;;12.60;72.80;;;;;;4995470;28;20030;-70
2021/01/13 11:31:57;;;;;;;11.38;5.75;;;12.60;73.10;;;;;;4996088;28;20023;-71
2021/01/13 11:34:24;;;;;;;18.45;7.22;;;12.50;73.10;;;;;;4996095;28;20022;-72
2021/01/13 11:37:08;;;;;;;20.20;8.20;;;12.60;73.00;;;;;;4996260;28;20101;-70
2021/01/13 11:39:45;;;;;;;21.80;6.60;;;12.70;73.00;;;;;;4996079;28;20040;-71
2021/01/13 11:42:18;;;;;;;21.50;7.40;;;12.70;72.70;;;;;;4994955;28;20483;-70
2021/01/13 11:44:57;;;;;;;24.02;7.75;;;12.80;72.60;;;;;;4995864;28;20034;-70
2021/01/13 11:47:32;;;;;;;18.73;7.03;;;12.80;72.60;;;;;;4994958;28;20034;-70
2021/01/13 11:50:01;;;;;;;18.25;6.55;;;12.80;72.30;;;;;;4995603;28;20037;-70
2021/01/13 11:52:35;;;;;;;13.18;6.10;;;12.80;72.30;;;;;;4995707;28;20452;-70
2021/01/13 11:55:02;;;;;;;8.90;5.68;;;12.50;73.20;;;;;;4995259;28;20456;-70
2021/01/13 11:57:35;;;;;;;22.42;8.75;;;12.20;74.50;;;;;;4994422;28;20053;-71
2021/01/13 12:00:18;;;;;;;25.48;8.07;;;12.20;73.90;;;;;;4995746;28;20027;-70
2021/01/13 12:02:52;;;;;;;17.05;6.50;;;12.00;75.90;;;;;;4995646;28;20461;-70
2021/01/13 12:05:34;;;;;;;11.98;6.25;;;11.80;77.30;;;;;;4995391;28;20050;-70
2021/01/13 12:08:06;;;;;;;9.43;5.13;;;11.90;76.30;;;;;;4995162;28;20077;-70
2021/01/13 12:10:38;;;;;;;13.35;5.57;;;11.90;75.60;;;;;;4994263;28;20062;-71
2021/01/13 12:13:17;;;;;;;10.50;5.53;;;12.00;75.30;;;;;;4994218;28;20092;-69
2021/01/13 12:16:20;;;;;;;13.13;5.78;;;12.00;74.90;;;;;;4995195;28;20491;-71
2021/01/13 12:18:53;;;;;;;21.00;8.02;;;12.00;74.40;;;;;;4993735;28;20042;-71
2021/01/13 12:21:21;;;;;;;14.75;6.97;;;12.00;74.30;;;;;;4995137;28;20034;-70
2021/01/13 12:23:53;;;;;;;25.23;8.50;;;12.10;73.60;;;;;;4997174;28;20014;-70
2021/01/13 12:26:28;;;;;;;25.33;7.18;;;12.10;73.00;;;;;;4994327;28;20371;-69
2021/01/13 12:29:18;;;;;;;13.70;7.43;;;12.20;73.00;;;;;;4995148;28;20113;-70
2021/01/13 12:31:47;;;;;;;18.63;7.53;;;12.20;73.30;;;;;;4997149;28;20417;-73
2021/01/13 12:34:18;;;;;;;19.35;9.43;;;12.20;73.60;;;;;;4998298;28;20421;-71
2021/01/13 12:36:50;;;;;;;13.38;8.20;;;12.10;73.40;;;;;;4994647;28;20026;-70
2021/01/13 12:39:43;;;;;;;17.25;6.55;;;12.10;73.80;;;;;;4993101;28;20060;-70
2021/01/13 12:42:18;;;;;;;22.52;8.52;;;12.00;74.00;;;;;;5002471;28;20489;-70
2021/01/13 12:44:44;;;;;;;18.75;7.65;;;11.90;73.80;;;;;;4995164;28;20175;-70
2021/01/13 12:47:11;;;;;;;18.45;8.45;;;12.00;73.90;;;;;;4993850;28;20097;-70
2021/01/13 12:49:38;;;;;;;22.88;9.65;;;12.10;74.00;;;;;;5005852;28;20030;-70
2021/01/13 12:52:04;;;;;;;15.43;7.47;;;12.00;73.60;;;;;;4990966;28;20108;-70
2021/01/13 12:54:31;;;;;;;20.63;7.45;;;12.00;73.70;;;;;;4988929;28;20035;-70
2021/01/13 12:56:57;;;;;;;21.05;8.10;;;12.10;74.10;;;;;;4984434;28;20026;-69
2021/01/13 12:59:23;;;;;;;22.15;8.70;;;12.30;74.00;;;;;;4994187;28;20137;-72
2021/01/13 13:01:51;;;;;;;14.30;7.15;;;12.30;73.10;;;;;;4994149;28;20030;-70